Time;durP1;ratioP1;P1;durP2;ratioP2;P2;SDS_P1;SDS_P2;PMS_P1;PMS_P2;Temp;Humidity;BMP_temperature;BMP_pressure;BME280_temperature;BME280_humidity;BME280_pressure;Samples;Min_cycle;Max_cycle;Signal;HPM_P1;HPM_P2
2024/02/10 00:01:39;;;;;;;4.90;3.35;;;;;;;9.51;83.97;96536.22;5007953;28;20136;-58
2024/02/10 00:04:06;;;;;;;3.42;2.75;;;;;;;9.51;83.82;96536.22;5001672;28;20065;-57
2024/02/10 00:06:36;;;;;;;3.05;1.30;;;;;;;9.52;83.91;96539.63;5001973;28;20066;-53
2024/02/10 00:09:06;;;;;;;3.60;1.30;;;;;;;9.52;84.24;96537.88;4996888;28;20137;-56
2024/02/10 00:11:34;;;;;;;5.35;1.83;;;;;;;9.52;83.52;96547.38;4996960;28;20520;-57
2024/02/10 00:14:01;;;;;;;6.82;1.77;;;;;;;9.52;84.00;96543.03;5005098;28;20049;-54
2024/02/10 00:16:28;;;;;;;8.05;1.55;;;;;;;9.54;83.89;96547.28;4998189;28;20062;-54
2024/02/10 00:18:57;;;;;;;5.13;1.33;;;;;;;9.53;83.60;96549.06;5004616;28;20056;-58
2024/02/10 00:21:24;;;;;;;3.70;1.25;;;;;;;9.51;83.66;96538.81;5000246;28;20058;-53
2024/02/10 00:23:51;;;;;;;5.20;1.58;;;;;;;9.49;84.35;96548.38;5006377;28;20058;-55
2024/02/10 00:26:21;;;;;;;4.90;3.10;;;;;;;9.49;83.83;96550.13;5004100;28;20518;-53
2024/02/10 00:28:48;;;;;;;;;;;;;;;9.41;84.49;96560.03;5007029;28;20423;-55
2024/02/10 00:31:15;;;;;;;6.25;3.03;;;;;;;9.43;84.18;96551.31;5000592;28;20024;-55
2024/02/10 00:33:46;;;;;;;7.72;1.63;;;;;;;9.44;83.93;96547.78;4997522;28;20141;-56
2024/02/10 00:36:13;;;;;;;6.63;1.98;;;;;;;9.45;84.41;96546.88;4997128;28;20053;-52
2024/02/10 00:38:40;;;;;;;5.80;1.70;;;;;;;9.46;84.51;96543.38;5002672;28;20054;-59
2024/02/10 00:41:09;;;;;;;4.35;1.42;;;;;;;9.46;84.34;96548.53;4999415;28;20137;-53
2024/02/10 00:43:42;;;;;;;6.85;1.77;;;;;;;9.47;83.96;96545.06;4999010;28;20590;-55
2024/02/10 00:46:10;;;;;;;7.70;4.38;;;;;;;9.49;83.71;96552.72;4995473;28;20119;-53
2024/02/10 00:48:37;;;;;;;10.00;1.58;;;;;;;9.47;84.02;96562.28;4997077;28;20050;-56
2024/02/10 00:51:05;;;;;;;6.70;3.20;;;;;;;9.48;83.71;96567.38;4994266;28;20046;-57
2024/02/10 00:53:36;;;;;;;8.88;1.95;;;;;;;9.49;84.08;96569.03;5017362;28;20069;-56
2024/02/10 00:56:03;;;;;;;3.53;1.65;;;;;;;9.50;84.52;96575.88;5003676;28;20050;-58
2024/02/10 00:58:30;;;;;;;5.88;1.98;;;;;;;9.51;83.91;96577.56;5005577;28;20053;-53
2024/02/10 01:00:57;;;;;;;8.05;1.90;;;;;;;9.52;84.56;96574.03;5004686;28;20042;-52
2024/02/10 01:03:24;;;;;;;5.05;3.40;;;;;;;9.54;84.47;96573.13;5004526;28;20068;-53
2024/02/10 01:05:51;;;;;;;9.35;3.90;;;;;;;9.55;84.38;96572.22;5007220;28;20065;-58
2024/02/10 01:08:18;;;;;;;6.22;2.20;;;;;;;9.56;83.89;96573.88;5005956;28;21188;-52
2024/02/10 01:10:44;;;;;;;5.13;2.47;;;;;;;9.56;84.09;96568.72;5007428;28;20450;-54
2024/02/10 01:13:11;;;;;;;9.00;3.97;;;;;;;9.55;83.94;96572.22;5005128;28;20050;-51
2024/02/10 01:15:42;;;;;;;5.25;1.60;;;;;;;9.54;84.09;96571.38;5006383;28;20235;-53
2024/02/10 01:18:12;;;;;;;6.72;1.60;;;;;;;9.53;84.07;96564.56;5002156;28;20053;-55
2024/02/10 01:20:39;;;;;;;7.25;2.20;;;;;;;9.52;84.17;96576.63;5006599;28;20507;-56
2024/02/10 01:23:08;;;;;;;6.55;2.33;;;;;;;9.52;84.38;96563.72;5008426;28;20048;-50
2024/02/10 01:25:36;;;;;;;5.22;2.17;;;;;;;9.51;84.11;96562.06;5004183;28;20532;-54
2024/02/10 01:28:03;;;;;;;7.80;2.03;;;;;;;9.52;84.41;96568.88;5000225;28;20073;-56
2024/02/10 01:30:29;;;;;;;10.55;2.50;;;;;;;9.52;84.13;96562.88;5006732;28;20415;-54
2024/02/10 01:32:57;;;;;;;7.07;2.13;;;;;;;9.51;83.99;96574.97;5001731;28;20057;-49
2024/02/10 01:35:27;;;;;;;10.07;2.17;;;;;;;9.52;83.61;96574.03;5006802;28;20054;-56
2024/02/10 01:37:55;;;;;;;9.30;2.40;;;;;;;9.52;84.12;96579.22;4998849;28;20052;-54
2024/02/10 01:40:22;;;;;;;7.72;2.13;;;;;;;9.50;83.98;96586.19;4997649;28;20055;-53
2024/02/10 01:42:49;;;;;;;6.32;2.20;;;;;;;9.50;83.88;96586.19;5000276;28;20057;-51
2024/02/10 01:45:17;;;;;;;10.07;3.60;;;;;;;9.50;84.54;96586.19;5006894;28;20220;-51
2024/02/10 01:47:46;;;;;;;8.95;4.13;;;;;;;9.50;83.78;96591.34;5003641;28;20080;-52
2024/02/10 01:50:14;;;;;;;8.35;2.75;;;;;;;9.51;84.07;96603.38;5009304;28;20056;-56
2024/02/10 01:52:43;;;;;;;8.95;3.53;;;;;;;9.52;84.26;96602.47;5011264;28;20136;-54
2024/02/10 01:55:10;;;;;;;7.78;2.35;;;;;;;9.51;84.25;96602.53;5002745;28;20483;-54
2024/02/10 01:57:38;;;;;;;10.48;2.38;;;;;;;9.52;83.95;96609.38;4995859;28;20057;-52
2024/02/10 02:00:06;;;;;;;9.02;2.30;;;;;;;9.52;84.25;96610.22;4997849;28;20104;-55
2024/02/10 02:02:33;;;;;;;7.63;2.63;;;;;;;9.52;84.12;96607.63;4996106;28;20062;-49
2024/02/10 02:05:02;;;;;;;12.27;3.55;;;;;;;9.52;84.49;96612.78;4998997;28;20455;-56
2024/02/10 02:07:30;;;;;;;6.68;2.35;;;;;;;9.52;84.53;96617.97;4998472;28;20060;-54
2024/02/10 02:10:00;;;;;;;14.40;4.50;;;;;;;9.51;84.14;96620.63;4995559;28;20146;-50
2024/02/10 02:12:28;;;;;;;5.70;2.67;;;;;;;9.49;84.27;96619.88;5002689;28;20054;-57
2024/02/10 02:14:57;;;;;;;8.55;2.97;;;;;;;9.48;83.91;96624.22;5000106;28;20056;-51
2024/02/10 02:17:24;;;;;;;9.95;2.42;;;;;;;9.46;84.36;96620.03;4998737;28;20058;-51
2024/02/10 02:19:52;;;;;;;9.00;3.00;;;;;;;9.43;84.37;96623.63;4997412;28;20112;-52
2024/02/10 02:22:20;;;;;;;5.38;2.10;;;;;;;9.40;83.94;96626.38;5000392;28;20073;-57
2024/02/10 02:24:47;;;;;;;6.47;2.38;;;;;;;9.35;84.38;96624.03;4998371;28;20119;-54
2024/02/10 02:27:14;;;;;;;8.25;4.32;;;;;;;9.33;83.67;96632.78;4994605;28;20041;-53
2024/02/10 02:29:42;;;;;;;9.80;4.00;;;;;;;9.28;83.81;96627.84;4999111;28;20065;-54
2024/02/10 02:32:10;;;;;;;8.85;4.57;;;;;;;9.29;84.01;96633.84;5000792;28;20054;-55
2024/02/10 02:34:38;;;;;;;6.35;3.03;;;;;;;9.29;84.00;96633.84;5000780;28;20050;-55
2024/02/10 02:37:06;;;;;;;10.35;2.90;;;;;;;9.29;84.09;96629.50;4983777;28;20091;-54
2024/02/10 02:39:35;;;;;;;5.40;2.42;;;;;;;9.28;83.96;96633.00;4993273;28;20526;-53
2024/02/10 02:42:05;;;;;;;11.40;4.72;;;;;;;9.29;84.57;96628.69;4992869;28;20491;-55
2024/02/10 02:44:33;;;;;;;7.90;4.93;;;;;;;9.29;83.82;96628.69;4990630;28;20722;-56
2024/02/10 02:47:04;;;;;;;6.95;3.05;;;;;;;9.30;84.02;96635.50;5011878;28;20046;-56
2024/02/10 02:49:33;;;;;;;7.05;3.00;;;;;;;9.29;84.13;96628.69;4996247;28;20050;-54
2024/02/10 02:52:00;;;;;;;11.52;4.43;;;;;;;9.27;84.14;96636.50;4997211;28;20466;-54
2024/02/10 02:54:34;;;;;;;8.70;2.85;;;;;;;9.25;83.63;96634.00;4995286;28;20061;-54
2024/02/10 02:57:01;;;;;;;8.38;3.17;;;;;;;9.23;83.96;96635.00;5002170;28;20415;-52
2024/02/10 02:59:27;;;;;;;8.45;4.82;;;;;;;9.22;83.80;96639.31;5000320;28;20061;-54
2024/02/10 03:01:54;;;;;;;11.45;4.78;;;;;;;9.21;84.38;96637.66;4993145;28;20081;-55
2024/02/10 03:04:22;;;;;;;13.20;5.53;;;;;;;9.24;84.50;96652.16;4998968;28;20065;-56
2024/02/10 03:06:50;;;;;;;12.23;3.33;;;;;;;9.23;84.45;96645.34;4998857;28;20100;-52
2024/02/10 03:09:18;;;;;;;12.23;3.67;;;;;;;9.22;84.23;96639.31;4994384;28;20038;-53
2024/02/10 03:11:45;;;;;;;13.18;6.07;;;;;;;9.22;84.87;96649.66;4987070;28;20041;-56
2024/02/10 03:14:15;;;;;;;13.20;5.80;;;;;;;9.23;83.94;96655.66;4996934;28;20042;-56
2024/02/10 03:16:45;;;;;;;9.32;5.30;;;;;;;9.20;84.03;96651.50;4999908;28;20050;-50
2024/02/10 03:19:12;;;;;;;11.45;4.50;;;;;;;9.18;84.03;96644.75;4996544;28;20422;-55
2024/02/10 03:21:39;;;;;;;10.00;4.13;;;;;;;9.14;83.82;96656.97;4997986;28;20571;-55
2024/02/10 03:24:06;;;;;;;11.68;4.22;;;;;;;9.10;83.78;96655.47;4994884;28;20054;-54
2024/02/10 03:26:36;;;;;;;12.18;3.72;;;;;;;9.04;83.46;96646.28;4992778;28;20058;-54
2024/02/10 03:29:05;;;;;;;15.20;5.82;;;;;;;8.98;83.98;96644.00;5003131;28;20046;-55
2024/02/10 03:31:33;;;;;;;11.60;5.40;;;;;;;8.94;83.96;96651.09;4995473;28;20050;-49
2024/02/10 03:34:01;;;;;;;17.35;4.43;;;;;;;8.89;83.97;96647.91;5001382;28;20054;-51
2024/02/10 03:36:30;;;;;;;12.57;3.83;;;;;;;8.85;83.52;96651.56;4997704;28;20058;-58
2024/02/10 03:39:03;;;;;;;13.32;5.40;;;;;;;8.79;83.48;96641.53;4992091;28;20050;-52
2024/02/10 03:41:30;;;;;;;13.88;4.57;;;;;;;8.73;83.88;96643.53;4991737;28;20686;-56
2024/02/10 03:43:57;;;;;;;12.45;4.53;;;;;;;8.69;83.86;96643.75;4996282;28;20504;-55
2024/02/10 03:46:23;;;;;;;15.43;4.47;;;;;;;8.63;83.78;96642.31;4997282;28;20058;-52
2024/02/10 03:48:52;;;;;;;14.10;5.13;;;;;;;8.59;83.73;96645.94;4997901;28;20411;-53
2024/02/10 03:51:19;;;;;;;10.18;3.80;;;;;;;8.56;84.02;96651.25;5006403;28;20065;-56
2024/02/10 03:53:46;;;;;;;12.82;4.47;;;;;;;8.52;83.33;96655.72;4997599;28;20058;-57
2024/02/10 03:56:12;;;;;;;14.00;6.40;;;;;;;8.52;83.45;96662.59;4997724;28;20061;-56
2024/02/10 03:58:41;;;;;;;14.07;5.63;;;;;;;8.52;83.74;96678.06;4999942;28;20054;-53
2024/02/10 04:01:16;;;;;;;14.25;4.28;;;;;;;8.52;83.86;96676.34;4994190;28;20799;-55
2024/02/10 04:03:45;;;;;;;12.00;6.18;;;;;;;8.55;84.40;96685.69;4997084;28;20057;-55
2024/02/10 04:06:15;;;;;;;14.35;4.55;;;;;;;8.58;84.10;96677.81;5001845;28;20046;-52
2024/02/10 04:08:46;;;;;;;;;;;;;;;8.51;84.44;96689.31;5014420;28;20573;-53
2024/02/10 04:11:17;;;;;;;12.85;6.78;;;;;;;8.59;84.27;96674.31;4998890;28;20019;-52
2024/02/10 04:13:47;;;;;;;15.15;7.85;;;;;;;8.61;84.93;96680.22;4998388;28;20499;-54
2024/02/10 04:16:15;;;;;;;15.25;4.30;;;;;;;8.61;83.99;96681.06;5003509;28;20375;-54
2024/02/10 04:18:42;;;;;;;13.85;6.53;;;;;;;8.61;83.79;96675.91;4999028;28;20055;-52
2024/02/10 04:21:10;;;;;;;9.40;4.00;;;;;;;8.60;84.15;96678.56;5001397;28;20128;-57
2024/02/10 04:23:39;;;;;;;10.23;3.08;;;;;;;8.57;84.02;96679.56;4997456;28;20137;-48
2024/02/10 04:26:07;;;;;;;10.98;5.15;;;;;;;8.55;83.83;96690.88;5006063;28;20157;-59
2024/02/10 04:28:34;;;;;;;10.80;4.07;;;;;;;8.53;83.74;96690.06;4999588;28;20403;-55
2024/02/10 04:31:01;;;;;;;12.43;5.35;;;;;;;8.52;83.53;96696.13;4997061;28;20054;-55
2024/02/10 04:33:30;;;;;;;15.32;4.30;;;;;;;8.52;83.88;96696.13;5000741;28;20038;-54
2024/02/10 04:35:57;;;;;;;10.15;3.72;;;;;;;8.51;83.74;96704.78;4998391;28;20057;-55
2024/02/10 04:38:24;;;;;;;9.15;4.45;;;;;;;8.49;83.71;96708.25;4997605;28;20046;-53
2024/02/10 04:40:51;;;;;;;9.10;2.78;;;;;;;8.47;83.38;96715.25;4992943;28;20054;-52
2024/02/10 04:43:19;;;;;;;10.80;3.22;;;;;;;8.46;83.43;96718.75;4993798;28;20092;-53
2024/02/10 04:45:48;;;;;;;11.10;5.20;;;;;;;8.45;83.11;96722.19;4997763;28;20042;-51
2024/02/10 04:48:19;;;;;;;10.00;5.38;;;;;;;8.43;83.37;96724.03;4998551;28;20049;-51
2024/02/10 04:50:47;;;;;;;8.93;2.80;;;;;;;8.43;82.71;96724.03;4994479;28;20756;-56
2024/02/10 04:53:15;;;;;;;8.05;4.85;;;;;;;8.42;83.31;96722.38;4998891;28;20049;-53
2024/02/10 04:55:44;;;;;;;10.10;4.88;;;;;;;8.42;83.67;96727.53;5000118;28;20057;-53
2024/02/10 04:58:12;;;;;;;8.90;3.00;;;;;;;8.40;83.25;96729.34;4995261;28;20053;-54
2024/02/10 05:00:40;;;;;;;11.23;4.28;;;;;;;8.40;83.26;96733.66;5002018;28;20046;-52
2024/02/10 05:03:07;;;;;;;10.82;2.92;;;;;;;8.39;83.49;96748.31;4999956;28;20073;-55
2024/02/10 05:05:34;;;;;;;15.45;4.90;;;;;;;8.37;83.56;96752.69;5001144;28;20073;-51
2024/02/10 05:08:01;;;;;;;11.52;5.22;;;;;;;8.37;83.50;96747.53;5007973;28;20152;-54
2024/02/10 05:10:28;;;;;;;10.88;4.90;;;;;;;8.36;83.45;96748.44;4999755;28;20053;-55
2024/02/10 05:12:55;;;;;;;9.95;3.40;;;;;;;8.35;83.45;96731.31;5006777;28;20046;-50
2024/02/10 05:15:24;;;;;;;12.48;3.63;;;;;;;8.30;83.56;96739.25;5004163;28;20049;-56
2024/02/10 05:17:53;;;;;;;11.43;3.42;;;;;;;8.27;83.50;96751.47;5000843;28;20057;-57
2024/02/10 05:22:58;;;;;;;9.40;3.72;;;;;;;8.20;83.28;96754.31;5079063;27;20406;-55
2024/02/10 05:25:34;;;;;;;11.95;3.70;;;;;;;8.17;83.53;96764.75;5021420;28;20064;-57
2024/02/10 05:28:02;;;;;;;12.18;3.67;;;;;;;8.14;82.95;96766.66;5050851;28;20410;-54
2024/02/10 05:30:29;;;;;;;12.88;4.95;;;;;;;8.12;83.51;96766.72;5050536;28;20060;-55
2024/02/10 05:33:01;;;;;;;12.05;4.38;;;;;;;8.10;82.83;96769.38;5048018;28;20126;-51
2024/02/10 05:35:30;;;;;;;11.57;4.15;;;;;;;8.07;82.80;96773.84;5041763;28;20072;-59
2024/02/10 05:37:59;;;;;;;13.50;4.97;;;;;;;8.05;83.25;96771.31;5044976;28;20126;-57
2024/02/10 05:40:27;;;;;;;10.95;4.40;;;;;;;8.05;83.90;96770.47;5041949;28;20767;-53
2024/02/10 05:42:58;;;;;;;13.40;4.38;;;;;;;8.03;82.90;96772.28;5045890;28;20045;-51
2024/02/10 05:45:28;;;;;;;13.57;4.68;;;;;;;8.02;83.52;96780.94;5046298;28;20075;-55
2024/02/10 05:47:54;;;;;;;15.15;4.45;;;;;;;8.01;83.87;96779.25;5045828;28;20073;-51
2024/02/10 05:50:23;;;;;;;12.30;4.95;;;;;;;8.00;83.38;96777.59;5051664;28;20049;-56
2024/02/10 05:52:52;;;;;;;13.35;4.03;;;;;;;7.97;83.57;96769.09;5043895;28;20057;-57
2024/02/10 05:55:25;;;;;;;14.20;3.83;;;;;;;7.96;83.15;96780.31;5076247;28;20526;-56
2024/02/10 05:57:55;;;;;;;9.95;4.15;;;;;;;7.92;83.28;96786.50;5048269;28;20128;-57
2024/02/10 06:00:23;;;;;;;13.20;3.80;;;;;;;7.89;82.56;96786.63;5035678;28;20050;-56
2024/02/10 06:02:51;;;;;;;11.77;4.55;;;;;;;7.87;82.48;96787.59;5044448;28;20053;-53
2024/02/10 06:05:18;;;;;;;13.48;4.35;;;;;;;7.85;83.20;96785.09;5043493;28;20038;-51
2024/02/10 06:07:48;;;;;;;10.75;4.22;;;;;;;7.82;83.19;96785.22;5071180;28;20062;-51
2024/02/10 06:10:16;;;;;;;13.48;3.88;;;;;;;7.80;83.30;96792.22;5037599;28;20059;-49
2024/02/10 06:12:49;;;;;;;6.97;3.67;;;;;;;7.76;83.46;96793.22;5039200;28;20049;-51
2024/02/10 06:15:17;;;;;;;10.13;3.65;;;;;;;7.74;83.19;96802.78;5036494;28;20759;-54
2024/02/10 06:17:52;;;;;;;12.30;4.47;;;;;;;7.70;83.13;96805.47;5041070;28;20510;-55
2024/02/10 06:20:22;;;;;;;8.57;3.83;;;;;;;7.68;83.27;96809.88;5066214;28;20521;-50
2024/02/10 06:22:52;;;;;;;10.48;2.65;;;;;;;7.64;82.91;96808.34;5037784;28;20064;-52
2024/02/10 06:25:28;;;;;;;8.60;3.22;;;;;;;7.60;83.60;96801.59;5040396;28;20417;-52
2024/02/10 06:27:58;;;;;;;9.30;3.30;;;;;;;7.57;82.90;96804.34;5065540;28;20049;-52
2024/02/10 06:30:30;;;;;;;;;;;;;;;7.44;82.93;96804.84;5065159;28;20052;-53
2024/02/10 06:32:58;;;;;;;8.07;4.32;;;;;;;7.45;83.26;96808.25;5030712;28;19926;-50
2024/02/10 06:35:26;;;;;;;12.85;3.53;;;;;;;7.43;83.40;96810.09;5023483;28;20049;-51
2024/02/10 06:37:54;;;;;;;8.65;3.33;;;;;;;7.41;83.10;96806.72;5026163;28;20060;-52
2024/02/10 06:40:22;;;;;;;10.65;3.08;;;;;;;7.37;82.52;96810.31;5020389;28;20049;-54
2024/02/10 06:42:50;;;;;;;10.75;3.22;;;;;;;7.33;83.29;96807.06;5023098;28;20045;-51
2024/02/10 06:45:21;;;;;;;12.00;3.28;;;;;;;7.30;82.51;96814.91;5019057;28;20049;-53
2024/02/10 06:47:50;;;;;;;10.80;4.25;;;;;;;7.27;83.38;96809.88;5024296;28;20099;-53
2024/02/10 06:50:23;;;;;;;10.05;2.90;;;;;;;7.23;82.36;96808.34;5021129;28;20038;-52
2024/02/10 06:52:53;;;;;;;10.63;3.17;;;;;;;7.20;83.46;96809.31;5050400;28;20417;-54
2024/02/10 06:55:20;;;;;;;13.43;3.95;;;;;;;7.16;83.52;96815.47;5023074;28;20053;-58
2024/02/10 06:57:52;;;;;;;9.85;3.40;;;;;;;7.13;82.59;96813.84;5023784;28;20058;-56
2024/02/10 07:00:19;;;;;;;11.32;4.15;;;;;;;7.09;82.95;96811.47;5021734;28;20705;-56
2024/02/10 07:02:48;;;;;;;9.85;3.42;;;;;;;7.03;82.95;96818.53;5019856;28;20061;-56
2024/02/10 07:05:16;;;;;;;12.38;3.70;;;;;;;7.00;82.57;96822.97;5011610;28;20054;-56
2024/02/10 07:07:46;;;;;;;11.07;4.22;;;;;;;6.96;82.79;96826.56;5023883;28;20127;-55
2024/02/10 07:10:19;;;;;;;9.63;3.00;;;;;;;6.89;82.95;96826.81;5055462;28;20049;-49
2024/02/10 07:12:47;;;;;;;14.60;3.30;;;;;;;6.84;82.76;96831.31;5019487;28;20049;-52
2024/02/10 07:15:19;;;;;;;11.77;3.28;;;;;;;6.80;82.01;96829.75;5031072;28;20506;-55
2024/02/10 07:17:49;;;;;;;9.63;3.53;;;;;;;6.78;81.89;96834.94;5022721;28;20064;-53
2024/02/10 07:23:00;;;;;;;8.40;4.75;;;;;;;6.75;82.91;96841.97;5030589;27;20413;-58
2024/02/10 07:25:29;;;;;;;11.30;4.82;;;;;;;6.73;83.20;96841.16;5002636;28;20057;-51
2024/02/10 07:28:01;;;;;;;9.32;4.38;;;;;;;6.73;82.35;96841.16;5005633;28;20060;-54
2024/02/10 07:30:31;;;;;;;10.98;4.50;;;;;;;6.72;82.10;96850.63;5005508;28;20053;-55
2024/02/10 07:33:16;;;;;;;10.77;4.85;;;;;;;6.72;82.42;96852.38;5002390;28;20131;-57
2024/02/10 07:35:49;;;;;;;8.77;4.63;;;;;;;6.72;82.55;96854.94;5000356;28;20049;-58
2024/02/10 07:38:20;;;;;;;12.55;4.47;;;;;;;6.73;83.01;96860.03;5003695;28;20054;-51
2024/02/10 07:40:47;;;;;;;10.15;4.55;;;;;;;6.74;82.86;96858.28;4986631;28;20451;-54
2024/02/10 07:43:15;;;;;;;11.25;4.88;;;;;;;6.75;82.71;96862.53;4990284;28;20049;-55
2024/02/10 07:45:44;;;;;;;10.88;4.25;;;;;;;6.77;82.58;96869.28;4994798;28;20051;-53
2024/02/10 07:48:11;;;;;;;7.32;5.05;;;;;;;6.79;83.06;96869.25;4985671;28;20056;-52
2024/02/10 07:50:40;;;;;;;8.57;4.20;;;;;;;6.80;82.58;96873.47;4997287;28;20078;-53
2024/02/10 07:53:13;;;;;;;6.18;3.33;;;;;;;6.81;82.95;96875.16;5003553;28;20050;-58
2024/02/10 07:55:42;;;;;;;8.35;4.40;;;;;;;6.84;82.96;96864.75;4996563;28;20050;-55
2024/02/10 07:58:14;;;;;;;9.27;4.22;;;;;;;6.89;82.73;96878.25;4988272;28;20050;-50
2024/02/10 08:00:42;;;;;;;7.65;4.60;;;;;;;6.91;82.43;96876.47;4994940;28;20047;-56
2024/02/10 08:03:11;;;;;;;9.98;4.15;;;;;;;6.93;82.20;96876.41;4987399;28;20050;-56
2024/02/10 08:05:42;;;;;;;9.88;5.30;;;;;;;6.93;82.05;96877.25;4986999;28;20734;-50
2024/02/10 08:08:10;;;;;;;10.13;3.83;;;;;;;6.94;83.46;96884.09;4990313;28;20046;-53
2024/02/10 08:10:39;;;;;;;6.90;4.45;;;;;;;7.00;83.61;96889.88;4988162;28;20412;-52
2024/02/10 08:13:08;;;;;;;7.38;4.13;;;;;;;7.08;82.37;96892.97;4988635;28;20192;-57
2024/02/10 08:15:35;;;;;;;5.28;2.05;;;;;;;7.17;82.38;96887.44;4992093;28;21053;-53
2024/02/10 08:18:05;;;;;;;6.97;3.83;;;;;;;7.28;82.66;96883.63;4996271;28;20046;-54
2024/02/10 08:20:32;;;;;;;6.32;3.20;;;;;;;7.36;82.50;96891.88;4984802;28;20107;-53
2024/02/10 08:22:59;;;;;;;4.88;1.52;;;;;;;7.44;82.99;96884.66;4987017;28;20839;-56
2024/02/10 08:25:28;;;;;;;8.23;3.17;;;;;;;7.58;82.62;96885.84;4989197;28;20132;-56
2024/02/10 08:27:56;;;;;;;2.72;1.27;;;;;;;7.77;82.79;96892.81;4987511;28;20677;-53
2024/02/10 08:30:24;;;;;;;6.95;2.15;;;;;;;7.96;82.72;96896.28;4981879;28;20691;-55
2024/02/10 08:32:53;;;;;;;7.63;5.18;;;;;;;8.09;81.43;96895.75;4992375;28;20078;-55
2024/02/10 08:35:24;;;;;;;8.65;4.28;;;;;;;8.21;82.00;96900.34;4985800;28;20050;-50
2024/02/10 08:37:51;;;;;;;7.57;4.43;;;;;;;8.25;81.38;96902.81;4980657;28;20058;-54
2024/02/10 08:40:18;;;;;;;7.57;4.38;;;;;;;8.27;81.48;96903.59;4981732;28;20192;-51
2024/02/10 08:42:46;;;;;;;6.75;4.03;;;;;;;8.31;81.06;96905.94;4980485;28;20408;-54
2024/02/10 08:45:14;;;;;;;6.15;3.47;;;;;;;8.38;81.20;96916.84;4977218;28;20054;-51
2024/02/10 08:47:45;;;;;;;7.50;3.72;;;;;;;8.39;81.40;96915.94;4976023;28;20074;-55
2024/02/10 08:50:12;;;;;;;6.60;4.25;;;;;;;8.36;80.51;96909.19;4975997;28;20054;-55
2024/02/10 08:52:39;;;;;;;6.35;3.92;;;;;;;8.34;80.81;96923.00;4977602;28;21243;-54
2024/02/10 08:55:07;;;;;;;4.63;3.10;;;;;;;8.31;80.58;96925.75;4975038;28;20050;-54
2024/02/10 08:57:36;;;;;;;6.22;3.63;;;;;;;8.29;80.79;96925.81;4974136;28;20101;-57
2024/02/10 09:00:05;;;;;;;3.30;2.70;;;;;;;8.23;80.92;96932.06;4981306;28;20051;-55
2024/02/10 09:02:32;;;;;;;5.50;3.38;;;;;;;8.16;80.44;96938.41;4981301;28;20046;-54
2024/02/10 09:04:59;;;;;;;6.32;3.13;;;;;;;8.10;80.67;96929.19;4974707;28;20057;-51
2024/02/10 09:07:26;;;;;;;5.90;4.05;;;;;;;8.09;80.44;96934.41;4972438;28;20058;-58
2024/02/10 09:09:53;;;;;;;9.55;3.88;;;;;;;8.08;81.05;96925.00;4975226;28;20468;-52
2024/02/10 09:12:19;;;;;;;8.57;4.82;;;;;;;8.08;81.52;96930.97;4981059;28;20101;-55
2024/02/10 09:14:47;;;;;;;8.50;4.30;;;;;;;8.04;81.28;96932.00;4971950;28;20062;-53
2024/02/10 09:17:14;;;;;;;7.95;4.50;;;;;;;8.05;81.75;96932.88;4966970;28;20157;-55
2024/02/10 09:19:41;;;;;;;7.82;4.43;;;;;;;8.06;81.63;96931.94;4972403;28;20074;-54
2024/02/10 09:22:10;;;;;;;6.32;4.47;;;;;;;8.06;81.79;96925.06;4974762;28;20054;-55
2024/02/10 09:24:39;;;;;;;6.78;3.95;;;;;;;8.07;81.93;96923.34;4978875;28;20050;-52
2024/02/10 09:27:10;;;;;;;7.07;4.22;;;;;;;8.12;81.59;96921.38;4978403;28;20061;-51
2024/02/10 09:29:37;;;;;;;7.35;4.18;;;;;;;8.21;81.17;96926.13;4972084;28;20073;-57
2024/02/10 09:32:04;;;;;;;7.75;4.60;;;;;;;8.26;81.32;96925.09;4972717;28;20050;-54
2024/02/10 09:34:31;;;;;;;8.65;4.13;;;;;;;8.31;81.65;96936.06;4976565;28;20109;-54
2024/02/10 09:36:59;;;;;;;7.88;4.15;;;;;;;8.38;81.93;96937.47;4981598;28;20082;-55
2024/02/10 09:39:26;;;;;;;6.25;3.72;;;;;;;8.43;81.59;96945.84;4974439;28;20046;-49
2024/02/10 09:41:59;;;;;;;8.30;3.95;;;;;;;8.49;81.59;96945.56;4982288;28;20054;-55
2024/02/10 09:44:29;;;;;;;6.43;4.00;;;;;;;8.53;82.30;96951.47;4973486;28;20053;-52
2024/02/10 09:47:00;;;;;;;10.65;3.78;;;;;;;8.59;81.73;96950.34;4975476;28;20046;-55
2024/02/10 09:49:29;;;;;;;6.43;3.95;;;;;;;8.65;81.99;96960.38;4980446;28;20056;-58
2024/02/10 09:51:58;;;;;;;7.70;4.45;;;;;;;8.72;81.75;96959.19;4977828;28;20042;-53
2024/02/10 09:54:26;;;;;;;7.68;4.03;;;;;;;8.81;82.08;96954.56;4974462;28;20074;-51
2024/02/10 09:56:53;;;;;;;5.95;3.95;;;;;;;8.90;81.89;96961.03;4975487;28;20064;-51
2024/02/10 09:59:24;;;;;;;8.13;3.95;;;;;;;8.96;82.05;96953.00;4976056;28;20057;-51
2024/02/10 10:01:54;;;;;;;10.93;4.30;;;;;;;9.02;81.44;96957.06;4981120;28;20058;-47
2024/02/10 10:04:21;;;;;;;9.07;4.43;;;;;;;9.05;82.28;96956.91;4979380;28;20054;-50
2024/02/10 10:06:49;;;;;;;10.40;4.50;;;;;;;9.04;81.90;96960.38;4977717;28;20152;-51
2024/02/10 10:09:18;;;;;;;7.63;3.90;;;;;;;9.02;81.43;96959.63;4969605;28;20047;-55
2024/02/10 10:11:49;;;;;;;7.13;4.15;;;;;;;9.04;81.79;96960.38;4973834;28;20043;-54
2024/02/10 10:14:17;;;;;;;8.07;6.30;;;;;;;9.06;81.99;96963.75;4975871;28;20424;-56
2024/02/10 10:17:02;;;;;;;8.10;4.40;;;;;;;9.08;81.76;96959.31;4972736;28;20077;-53
2024/02/10 10:19:29;;;;;;;7.88;3.85;;;;;;;9.10;81.82;96965.28;4977734;28;20460;-54
2024/02/10 10:21:57;;;;;;;7.40;4.35;;;;;;;9.07;81.49;96970.56;4974143;28;20101;-52
2024/02/10 10:24:25;;;;;;;6.15;3.75;;;;;;;9.03;81.07;96974.22;4972198;28;20058;-54
2024/02/10 10:26:54;;;;;;;7.07;4.25;;;;;;;8.97;81.19;96976.16;4970896;28;20539;-54
2024/02/10 10:29:21;;;;;;;5.78;3.63;;;;;;;8.97;81.33;96971.00;4979157;28;20050;-57
2024/02/10 10:31:50;;;;;;;8.70;4.63;;;;;;;9.08;81.22;96974.81;4972441;28;20053;-52
2024/02/10 10:34:19;;;;;;;6.63;3.75;;;;;;;9.15;81.65;96970.22;4975976;28;20141;-55
2024/02/10 10:36:49;;;;;;;8.85;4.13;;;;;;;9.16;81.26;96972.75;4969878;28;20051;-58
2024/02/10 10:39:17;;;;;;;8.43;4.00;;;;;;;9.21;81.31;96973.34;4969773;28;20054;-60
2024/02/10 10:41:45;;;;;;;9.25;4.65;;;;;;;9.24;81.37;96968.06;4969670;28;20116;-55
2024/02/10 10:44:14;;;;;;;9.15;3.67;;;;;;;9.25;81.39;96971.47;4975576;28;20074;-55
2024/02/10 10:46:42;;;;;;;5.80;3.78;;;;;;;9.26;81.26;96975.72;4974163;28;20081;-58
2024/02/10 10:49:09;;;;;;;7.72;4.05;;;;;;;9.24;80.81;96983.56;4972305;28;20057;-56
2024/02/10 10:51:51;;;;;;;10.95;4.00;;;;;;;9.25;81.24;96985.22;4978259;28;20050;-54
2024/02/10 10:54:19;;;;;;;8.95;4.28;;;;;;;9.28;81.17;96984.22;4977957;28;20050;-57
2024/02/10 10:56:48;;;;;;;5.80;4.43;;;;;;;9.33;81.31;96984.88;4979356;28;20046;-54
2024/02/10 10:59:17;;;;;;;4.88;3.20;;;;;;;9.38;81.21;96985.47;4976283;28;20081;-56
2024/02/10 11:01:45;;;;;;;7.15;3.40;;;;;;;9.46;81.27;96987.69;4973656;28;20046;-53
2024/02/10 11:04:14;;;;;;;7.07;4.25;;;;;;;9.55;81.99;96985.59;4981369;28;20061;-58
2024/02/10 11:06:44;;;;;;;8.52;4.90;;;;;;;9.61;81.21;96990.44;4980964;28;20480;-57
2024/02/10 11:09:20;;;;;;;6.32;4.72;;;;;;;9.64;81.27;96986.00;4981981;28;20050;-49
2024/02/10 11:11:47;;;;;;;7.38;3.80;;;;;;;9.66;81.03;96988.47;4981174;28;20136;-54
2024/02/10 11:14:14;;;;;;;6.18;3.97;;;;;;;9.67;81.44;96990.16;4984157;28;20078;-53
2024/02/10 11:16:42;;;;;;;6.55;3.75;;;;;;;9.67;81.45;96985.00;4985532;28;20565;-57
2024/02/10 11:19:11;;;;;;;4.95;2.15;;;;;;;9.68;81.75;96991.84;4988623;28;20363;-54
2024/02/10 11:21:43;;;;;;;5.50;3.88;;;;;;;9.69;81.80;96992.69;4976650;28;20357;-55
2024/02/10 11:24:16;;;;;;;9.80;3.63;;;;;;;9.68;81.65;96991.84;4980113;28;20519;-53
2024/02/10 11:26:44;;;;;;;6.13;2.13;;;;;;;9.69;81.51;96998.66;4982015;28;20603;-53
2024/02/10 11:29:18;;;;;;;8.13;3.35;;;;;;;9.69;81.80;96998.66;4984031;28;20050;-50
2024/02/10 11:31:46;;;;;;;5.70;3.55;;;;;;;9.69;80.88;96992.69;4986432;28;20062;-57
2024/02/10 11:34:16;;;;;;;5.78;3.33;;;;;;;9.68;81.72;96991.00;4985633;28;20086;-51
2024/02/10 11:36:55;;;;;;;8.48;3.22;;;;;;;9.69;81.03;96992.69;4984927;28;20054;-49
2024/02/10 11:39:24;;;;;;;6.70;3.08;;;;;;;9.70;81.71;96989.19;4985862;28;20050;-52
2024/02/10 11:41:56;;;;;;;4.55;3.22;;;;;;;9.65;81.61;96986.81;4980108;28;20082;-54
2024/02/10 11:44:26;;;;;;;4.95;3.25;;;;;;;9.65;81.65;96986.81;4986158;28;20054;-51
2024/02/10 11:46:53;;;;;;;3.78;3.33;;;;;;;9.60;80.84;96993.97;4985419;28;20086;-55
2024/02/10 11:49:21;;;;;;;3.88;2.92;;;;;;;9.50;81.48;96989.22;4984626;28;20059;-50
2024/02/10 11:51:53;;;;;;;4.13;2.97;;;;;;;9.38;81.13;96994.97;4985595;28;20058;-50